sensor_id;sensor_type;location;lat;lon;timestamp;P1;durP1;ratioP1;P2;durP2;ratioP2
35777;SDS011;21899;42.662;23.316;2023-04-25T00:01:20;9.13;;;6.50;;
35777;SDS011;21899;42.662;23.316;2023-04-25T00:03:46;10.93;;;6.93;;
35777;SDS011;21899;42.662;23.316;2023-04-25T00:06:12;10.13;;;6.68;;
35777;SDS011;21899;42.662;23.316;2023-04-25T00:08:37;8.60;;;6.80;;
35777;SDS011;21899;42.662;23.316;2023-04-25T00:11:03;12.75;;;6.95;;
35777;SDS011;21899;42.662;23.316;2023-04-25T00:13:29;13.00;;;6.97;;
35777;SDS011;21899;42.662;23.316;2023-04-25T00:15:54;11.95;;;7.38;;
35777;SDS011;21899;42.662;23.316;2023-04-25T00:18:21;10.23;;;7.70;;
35777;SDS011;21899;42.662;23.316;2023-04-25T00:20:47;10.35;;;7.10;;
35777;SDS011;21899;42.662;23.316;2023-04-25T00:23:13;8.48;;;6.53;;
35777;SDS011;21899;42.662;23.316;2023-04-25T00:25:46;8.60;;;5.65;;
35777;SDS011;21899;42.662;23.316;2023-04-25T00:28:15;8.57;;;5.45;;
35777;SDS011;21899;42.662;23.316;2023-04-25T00:30:41;8.80;;;5.80;;
35777;SDS011;21899;42.662;23.316;2023-04-25T00:33:07;12.48;;;6.47;;
35777;SDS011;21899;42.662;23.316;2023-04-25T00:35:33;14.27;;;7.10;;
35777;SDS011;21899;42.662;23.316;2023-04-25T00:37:59;13.52;;;7.57;;
35777;SDS011;21899;42.662;23.316;2023-04-25T00:40:25;10.77;;;7.32;;
35777;SDS011;21899;42.662;23.316;2023-04-25T00:42:51;11.98;;;8.57;;
35777;SDS011;21899;42.662;23.316;2023-04-25T00:45:17;16.40;;;9.55;;
35777;SDS011;21899;42.662;23.316;2023-04-25T00:47:44;13.88;;;9.02;;
35777;SDS011;21899;42.662;23.316;2023-04-25T00:50:10;13.25;;;8.75;;
35777;SDS011;21899;42.662;23.316;2023-04-25T00:52:40;14.50;;;9.07;;
35777;SDS011;21899;42.662;23.316;2023-04-25T00:55:08;15.07;;;9.75;;
35777;SDS011;21899;42.662;23.316;2023-04-25T00:57:35;16.38;;;9.00;;
35777;SDS011;21899;42.662;23.316;2023-04-25T01:00:00;14.55;;;9.07;;
35777;SDS011;21899;42.662;23.316;2023-04-25T01:02:26;16.67;;;9.98;;
35777;SDS011;21899;42.662;23.316;2023-04-25T01:04:52;14.02;;;9.93;;
35777;SDS011;21899;42.662;23.316;2023-04-25T01:07:18;14.75;;;9.85;;
35777;SDS011;21899;42.662;23.316;2023-04-25T01:09:43;17.42;;;10.38;;
35777;SDS011;21899;42.662;23.316;2023-04-25T01:12:09;16.08;;;10.35;;
35777;SDS011;21899;42.662;23.316;2023-04-25T01:14:34;13.18;;;9.05;;
35777;SDS011;21899;42.662;23.316;2023-04-25T01:17:00;15.95;;;9.85;;
35777;SDS011;21899;42.662;23.316;2023-04-25T01:19:26;17.92;;;9.82;;
35777;SDS011;21899;42.662;23.316;2023-04-25T01:21:51;15.90;;;9.82;;
35777;SDS011;21899;42.662;23.316;2023-04-25T01:24:17;14.80;;;9.18;;
35777;SDS011;21899;42.662;23.316;2023-04-25T01:26:43;22.13;;;10.32;;
35777;SDS011;21899;42.662;23.316;2023-04-25T01:29:18;13.60;;;8.98;;
35777;SDS011;21899;42.662;23.316;2023-04-25T01:31:45;17.00;;;9.43;;
35777;SDS011;21899;42.662;23.316;2023-04-25T01:34:11;15.13;;;8.88;;
35777;SDS011;21899;42.662;23.316;2023-04-25T01:36:37;15.00;;;9.95;;
35777;SDS011;21899;42.662;23.316;2023-04-25T01:39:03;18.30;;;10.90;;
35777;SDS011;21899;42.662;23.316;2023-04-25T01:41:28;15.68;;;10.13;;
35777;SDS011;21899;42.662;23.316;2023-04-25T01:43:54;15.88;;;10.20;;
35777;SDS011;21899;42.662;23.316;2023-04-25T01:46:20;21.05;;;11.25;;
35777;SDS011;21899;42.662;23.316;2023-04-25T01:48:46;18.52;;;10.05;;
35777;SDS011;21899;42.662;23.316;2023-04-25T01:51:12;12.55;;;8.90;;
35777;SDS011;21899;42.662;23.316;2023-04-25T01:53:37;17.30;;;10.13;;
35777;SDS011;21899;42.662;23.316;2023-04-25T01:56:04;15.65;;;9.75;;
35777;SDS011;21899;42.662;23.316;2023-04-25T01:58:29;14.82;;;9.95;;
35777;SDS011;21899;42.662;23.316;2023-04-25T02:00:55;18.83;;;10.65;;
35777;SDS011;21899;42.662;23.316;2023-04-25T02:03:20;16.65;;;10.68;;
35777;SDS011;21899;42.662;23.316;2023-04-25T02:05:46;14.13;;;9.60;;
35777;SDS011;21899;42.662;23.316;2023-04-25T02:08:11;14.70;;;9.00;;
35777;SDS011;21899;42.662;23.316;2023-04-25T02:10:37;14.13;;;8.48;;
35777;SDS011;21899;42.662;23.316;2023-04-25T02:13:02;14.68;;;9.13;;
35777;SDS011;21899;42.662;23.316;2023-04-25T02:15:29;16.35;;;9.45;;
35777;SDS011;21899;42.662;23.316;2023-04-25T02:17:54;13.68;;;9.25;;
35777;SDS011;21899;42.662;23.316;2023-04-25T02:20:21;17.33;;;10.00;;
35777;SDS011;21899;42.662;23.316;2023-04-25T02:22:47;15.10;;;9.32;;
35777;SDS011;21899;42.662;23.316;2023-04-25T02:25:12;12.68;;;8.95;;
35777;SDS011;21899;42.662;23.316;2023-04-25T02:27:38;14.68;;;8.60;;
35777;SDS011;21899;42.662;23.316;2023-04-25T02:30:04;14.57;;;9.23;;
35777;SDS011;21899;42.662;23.316;2023-04-25T02:32:31;13.90;;;9.68;;
35777;SDS011;21899;42.662;23.316;2023-04-25T02:34:57;15.98;;;10.10;;
35777;SDS011;21899;42.662;23.316;2023-04-25T02:37:28;16.60;;;10.07;;
35777;SDS011;21899;42.662;23.316;2023-04-25T02:39:54;17.08;;;10.60;;
35777;SDS011;21899;42.662;23.316;2023-04-25T02:42:20;17.50;;;10.65;;
35777;SDS011;21899;42.662;23.316;2023-04-25T02:44:45;20.25;;;10.70;;
35777;SDS011;21899;42.662;23.316;2023-04-25T02:47:11;21.60;;;11.60;;
35777;SDS011;21899;42.662;23.316;2023-04-25T02:49:36;20.27;;;11.48;;
35777;SDS011;21899;42.662;23.316;2023-04-25T02:52:01;20.75;;;12.55;;
35777;SDS011;21899;42.662;23.316;2023-04-25T02:54:27;20.92;;;12.05;;
35777;SDS011;21899;42.662;23.316;2023-04-25T02:56:52;21.80;;;13.63;;
35777;SDS011;21899;42.662;23.316;2023-04-25T02:59:18;19.80;;;12.02;;
35777;SDS011;21899;42.662;23.316;2023-04-25T03:01:43;20.38;;;13.10;;
35777;SDS011;21899;42.662;23.316;2023-04-25T03:04:08;23.23;;;13.77;;
35777;SDS011;21899;42.662;23.316;2023-04-25T03:06:34;24.35;;;13.55;;
35777;SDS011;21899;42.662;23.316;2023-04-25T03:08:59;25.90;;;14.68;;
35777;SDS011;21899;42.662;23.316;2023-04-25T03:11:25;26.70;;;15.52;;
35777;SDS011;21899;42.662;23.316;2023-04-25T03:13:50;26.58;;;14.90;;
35777;SDS011;21899;42.662;23.316;2023-04-25T03:16:16;23.23;;;13.63;;
35777;SDS011;21899;42.662;23.316;2023-04-25T03:18:41;21.52;;;13.88;;
35777;SDS011;21899;42.662;23.316;2023-04-25T03:21:06;21.70;;;13.00;;
35777;SDS011;21899;42.662;23.316;2023-04-25T03:23:32;23.88;;;14.15;;
35777;SDS011;21899;42.662;23.316;2023-04-25T03:25:57;25.10;;;15.00;;
35777;SDS011;21899;42.662;23.316;2023-04-25T03:28:23;24.17;;;13.23;;
35777;SDS011;21899;42.662;23.316;2023-04-25T03:30:48;21.83;;;12.45;;
35777;SDS011;21899;42.662;23.316;2023-04-25T03:33:14;20.70;;;11.90;;
35777;SDS011;21899;42.662;23.316;2023-04-25T03:35:39;19.25;;;12.23;;
35777;SDS011;21899;42.662;23.316;2023-04-25T03:38:04;20.90;;;11.88;;
35777;SDS011;21899;42.662;23.316;2023-04-25T03:40:30;17.80;;;11.02;;
35777;SDS011;21899;42.662;23.316;2023-04-25T03:42:55;25.67;;;11.77;;
35777;SDS011;21899;42.662;23.316;2023-04-25T03:45:21;19.95;;;11.30;;
35777;SDS011;21899;42.662;23.316;2023-04-25T03:47:46;19.35;;;11.50;;
35777;SDS011;21899;42.662;23.316;2023-04-25T03:50:12;19.17;;;11.02;;
35777;SDS011;21899;42.662;23.316;2023-04-25T03:52:37;17.73;;;11.20;;
35777;SDS011;21899;42.662;23.316;2023-04-25T03:55:03;17.55;;;11.40;;
35777;SDS011;21899;42.662;23.316;2023-04-25T03:57:29;17.15;;;11.45;;
35777;SDS011;21899;42.662;23.316;2023-04-25T03:59:55;17.83;;;11.73;;
35777;SDS011;21899;42.662;23.316;2023-04-25T04:02:20;17.27;;;11.43;;
35777;SDS011;21899;42.662;23.316;2023-04-25T04:04:45;15.13;;;9.88;;
35777;SDS011;21899;42.662;23.316;2023-04-25T04:07:11;14.57;;;10.07;;
35777;SDS011;21899;42.662;23.316;2023-04-25T04:09:36;15.80;;;10.48;;
35777;SDS011;21899;42.662;23.316;2023-04-25T04:12:02;16.25;;;9.98;;
35777;SDS011;21899;42.662;23.316;2023-04-25T04:14:27;12.82;;;8.52;;
35777;SDS011;21899;42.662;23.316;2023-04-25T04:16:53;14.50;;;8.68;;
35777;SDS011;21899;42.662;23.316;2023-04-25T04:19:18;13.27;;;8.27;;
35777;SDS011;21899;42.662;23.316;2023-04-25T04:21:44;13.55;;;9.50;;
35777;SDS011;21899;42.662;23.316;2023-04-25T04:24:09;11.20;;;8.65;;
35777;SDS011;21899;42.662;23.316;2023-04-25T04:26:35;12.65;;;8.30;;
35777;SDS011;21899;42.662;23.316;2023-04-25T04:29:01;12.65;;;8.55;;
35777;SDS011;21899;42.662;23.316;2023-04-25T04:31:27;12.18;;;8.05;;
35777;SDS011;21899;42.662;23.316;2023-04-25T04:33:55;12.13;;;8.57;;
35777;SDS011;21899;42.662;23.316;2023-04-25T04:36:20;13.05;;;8.35;;
35777;SDS011;21899;42.662;23.316;2023-04-25T04:38:47;12.73;;;8.70;;
35777;SDS011;21899;42.662;23.316;2023-04-25T04:41:13;10.48;;;7.47;;
35777;SDS011;21899;42.662;23.316;2023-04-25T04:43:39;12.35;;;8.55;;
35777;SDS011;21899;42.662;23.316;2023-04-25T04:46:05;11.60;;;7.82;;
35777;SDS011;21899;42.662;23.316;2023-04-25T04:48:33;11.07;;;8.20;;
35777;SDS011;21899;42.662;23.316;2023-04-25T04:50:59;12.13;;;8.48;;
35777;SDS011;21899;42.662;23.316;2023-04-25T04:53:25;13.50;;;7.93;;
35777;SDS011;21899;42.662;23.316;2023-04-25T04:55:51;10.27;;;7.22;;
35777;SDS011;21899;42.662;23.316;2023-04-25T04:58:16;12.63;;;7.97;;
35777;SDS011;21899;42.662;23.316;2023-04-25T05:00:42;13.82;;;8.63;;
35777;SDS011;21899;42.662;23.316;2023-04-25T05:03:08;11.90;;;8.35;;
35777;SDS011;21899;42.662;23.316;2023-04-25T05:05:33;12.52;;;8.35;;
35777;SDS011;21899;42.662;23.316;2023-04-25T05:07:58;11.90;;;8.43;;
35777;SDS011;21899;42.662;23.316;2023-04-25T05:10:25;14.05;;;9.77;;
35777;SDS011;21899;42.662;23.316;2023-04-25T05:12:50;17.27;;;10.00;;
35777;SDS011;21899;42.662;23.316;2023-04-25T05:15:16;12.05;;;9.02;;
35777;SDS011;21899;42.662;23.316;2023-04-25T05:17:41;12.80;;;9.77;;
35777;SDS011;21899;42.662;23.316;2023-04-25T05:20:07;12.90;;;8.40;;
35777;SDS011;21899;42.662;23.316;2023-04-25T05:22:36;14.13;;;9.38;;
35777;SDS011;21899;42.662;23.316;2023-04-25T05:25:01;14.65;;;10.00;;
35777;SDS011;21899;42.662;23.316;2023-04-25T05:27:28;15.93;;;10.85;;
35777;SDS011;21899;42.662;23.316;2023-04-25T05:29:54;16.48;;;11.52;;
35777;SDS011;21899;42.662;23.316;2023-04-25T05:32:19;14.38;;;10.93;;
35777;SDS011;21899;42.662;23.316;2023-04-25T05:34:45;18.40;;;11.95;;
35777;SDS011;21899;42.662;23.316;2023-04-25T05:37:10;15.82;;;11.25;;
35777;SDS011;21899;42.662;23.316;2023-04-25T05:39:35;16.50;;;11.10;;
35777;SDS011;21899;42.662;23.316;2023-04-25T05:42:01;16.48;;;11.63;;
35777;SDS011;21899;42.662;23.316;2023-04-25T05:44:27;17.77;;;12.63;;
35777;SDS011;21899;42.662;23.316;2023-04-25T05:46:53;15.70;;;10.02;;
35777;SDS011;21899;42.662;23.316;2023-04-25T05:49:18;16.00;;;10.90;;
35777;SDS011;21899;42.662;23.316;2023-04-25T05:51:43;15.80;;;10.80;;
35777;SDS011;21899;42.662;23.316;2023-04-25T05:54:09;18.55;;;11.50;;
35777;SDS011;21899;42.662;23.316;2023-04-25T05:56:34;17.98;;;11.52;;
35777;SDS011;21899;42.662;23.316;2023-04-25T05:59:00;25.58;;;13.30;;
35777;SDS011;21899;42.662;23.316;2023-04-25T06:01:26;15.23;;;11.65;;
35777;SDS011;21899;42.662;23.316;2023-04-25T06:03:51;14.55;;;10.82;;
35777;SDS011;21899;42.662;23.316;2023-04-25T06:06:17;20.98;;;11.43;;
35777;SDS011;21899;42.662;23.316;2023-04-25T06:08:43;18.85;;;10.38;;
35777;SDS011;21899;42.662;23.316;2023-04-25T06:11:08;15.50;;;10.98;;
35777;SDS011;21899;42.662;23.316;2023-04-25T06:13:34;20.77;;;11.02;;
35777;SDS011;21899;42.662;23.316;2023-04-25T06:15:59;18.33;;;10.25;;
35777;SDS011;21899;42.662;23.316;2023-04-25T06:18:25;16.08;;;10.20;;
35777;SDS011;21899;42.662;23.316;2023-04-25T06:20:50;18.65;;;10.00;;
35777;SDS011;21899;42.662;23.316;2023-04-25T06:23:15;16.33;;;8.77;;
35777;SDS011;21899;42.662;23.316;2023-04-25T06:25:41;12.68;;;8.80;;
35777;SDS011;21899;42.662;23.316;2023-04-25T06:28:06;15.65;;;9.65;;
35777;SDS011;21899;42.662;23.316;2023-04-25T06:30:31;13.98;;;8.95;;
35777;SDS011;21899;42.662;23.316;2023-04-25T06:32:57;15.43;;;9.20;;
35777;SDS011;21899;42.662;23.316;2023-04-25T06:35:22;10.50;;;7.70;;
35777;SDS011;21899;42.662;23.316;2023-04-25T06:37:48;11.88;;;7.13;;
35777;SDS011;21899;42.662;23.316;2023-04-25T06:40:13;13.55;;;8.27;;
35777;SDS011;21899;42.662;23.316;2023-04-25T06:42:38;15.25;;;7.90;;
35777;SDS011;21899;42.662;23.316;2023-04-25T06:45:04;17.85;;;7.10;;
35777;SDS011;21899;42.662;23.316;2023-04-25T06:47:30;8.98;;;6.10;;
35777;SDS011;21899;42.662;23.316;2023-04-25T06:49:55;9.30;;;6.32;;
35777;SDS011;21899;42.662;23.316;2023-04-25T06:52:20;9.63;;;5.82;;
35777;SDS011;21899;42.662;23.316;2023-04-25T06:54:46;14.65;;;8.38;;
35777;SDS011;21899;42.662;23.316;2023-04-25T06:57:11;11.95;;;6.68;;
35777;SDS011;21899;42.662;23.316;2023-04-25T06:59:37;10.35;;;6.60;;
35777;SDS011;21899;42.662;23.316;2023-04-25T07:02:02;9.45;;;6.95;;
35777;SDS011;21899;42.662;23.316;2023-04-25T07:04:28;11.15;;;7.13;;
35777;SDS011;21899;42.662;23.316;2023-04-25T07:06:54;12.73;;;7.85;;
35777;SDS011;21899;42.662;23.316;2023-04-25T07:09:19;12.25;;;7.70;;
35777;SDS011;21899;42.662;23.316;2023-04-25T07:11:45;11.60;;;8.00;;
35777;SDS011;21899;42.662;23.316;2023-04-25T07:14:10;11.45;;;7.97;;
35777;SDS011;21899;42.662;23.316;2023-04-25T07:16:36;13.07;;;7.80;;
35777;SDS011;21899;42.662;23.316;2023-04-25T07:19:01;12.45;;;8.35;;
35777;SDS011;21899;42.662;23.316;2023-04-25T07:21:27;13.07;;;7.65;;
35777;SDS011;21899;42.662;23.316;2023-04-25T07:23:52;10.63;;;6.60;;
35777;SDS011;21899;42.662;23.316;2023-04-25T07:26:18;11.52;;;6.78;;
35777;SDS011;21899;42.662;23.316;2023-04-25T07:28:43;10.13;;;6.32;;
35777;SDS011;21899;42.662;23.316;2023-04-25T07:31:09;15.88;;;6.93;;
35777;SDS011;21899;42.662;23.316;2023-04-25T07:33:34;9.15;;;6.30;;
35777;SDS011;21899;42.662;23.316;2023-04-25T07:36:00;9.15;;;6.13;;
35777;SDS011;21899;42.662;23.316;2023-04-25T07:38:25;11.85;;;6.50;;
35777;SDS011;21899;42.662;23.316;2023-04-25T07:40:51;10.43;;;7.50;;
35777;SDS011;21899;42.662;23.316;2023-04-25T07:43:16;9.77;;;6.82;;
35777;SDS011;21899;42.662;23.316;2023-04-25T07:45:42;13.20;;;7.75;;
35777;SDS011;21899;42.662;23.316;2023-04-25T07:48:08;11.90;;;6.30;;
35777;SDS011;21899;42.662;23.316;2023-04-25T07:50:35;7.93;;;6.25;;
35777;SDS011;21899;42.662;23.316;2023-04-25T07:53:00;8.60;;;6.07;;
35777;SDS011;21899;42.662;23.316;2023-04-25T07:55:25;8.63;;;6.47;;
35777;SDS011;21899;42.662;23.316;2023-04-25T07:57:51;10.10;;;6.38;;
35777;SDS011;21899;42.662;23.316;2023-04-25T08:00:17;9.57;;;5.70;;
35777;SDS011;21899;42.662;23.316;2023-04-25T08:02:42;12.82;;;6.80;;
35777;SDS011;21899;42.662;23.316;2023-04-25T08:05:08;8.63;;;5.97;;
35777;SDS011;21899;42.662;23.316;2023-04-25T08:07:36;16.60;;;5.95;;
35777;SDS011;21899;42.662;23.316;2023-04-25T08:10:02;8.32;;;5.82;;
35777;SDS011;21899;42.662;23.316;2023-04-25T08:12:28;8.65;;;5.40;;
35777;SDS011;21899;42.662;23.316;2023-04-25T08:14:53;9.43;;;6.10;;
35777;SDS011;21899;42.662;23.316;2023-04-25T08:17:19;9.98;;;5.47;;
35777;SDS011;21899;42.662;23.316;2023-04-25T08:19:44;7.55;;;4.93;;
35777;SDS011;21899;42.662;23.316;2023-04-25T08:22:10;15.07;;;8.95;;
35777;SDS011;21899;42.662;23.316;2023-04-25T08:24:35;6.15;;;5.03;;
35777;SDS011;21899;42.662;23.316;2023-04-25T08:27:01;8.85;;;4.88;;
35777;SDS011;21899;42.662;23.316;2023-04-25T08:29:27;9.00;;;4.72;;
35777;SDS011;21899;42.662;23.316;2023-04-25T08:31:53;7.88;;;4.43;;
35777;SDS011;21899;42.662;23.316;2023-04-25T08:34:18;5.85;;;4.03;;
35777;SDS011;21899;42.662;23.316;2023-04-25T08:36:45;9.73;;;4.90;;
35777;SDS011;21899;42.662;23.316;2023-04-25T08:39:10;9.55;;;4.53;;
35777;SDS011;21899;42.662;23.316;2023-04-25T08:41:36;7.95;;;4.68;;
35777;SDS011;21899;42.662;23.316;2023-04-25T08:44:03;5.70;;;4.32;;
35777;SDS011;21899;42.662;23.316;2023-04-25T08:46:29;13.20;;;4.38;;
35777;SDS011;21899;42.662;23.316;2023-04-25T08:48:57;7.47;;;4.80;;
35777;SDS011;21899;42.662;23.316;2023-04-25T08:51:25;8.90;;;3.70;;
35777;SDS011;21899;42.662;23.316;2023-04-25T08:53:55;8.43;;;5.30;;
35777;SDS011;21899;42.662;23.316;2023-04-25T08:56:23;8.10;;;5.47;;
35777;SDS011;21899;42.662;23.316;2023-04-25T08:58:49;9.95;;;5.82;;
35777;SDS011;21899;42.662;23.316;2023-04-25T09:01:18;8.45;;;5.22;;
35777;SDS011;21899;42.662;23.316;2023-04-25T09:03:44;12.15;;;6.28;;
35777;SDS011;21899;42.662;23.316;2023-04-25T09:06:10;8.35;;;5.45;;
35777;SDS011;21899;42.662;23.316;2023-04-25T09:08:36;7.93;;;4.78;;
35777;SDS011;21899;42.662;23.316;2023-04-25T09:11:02;12.07;;;5.00;;
35777;SDS011;21899;42.662;23.316;2023-04-25T09:13:28;7.55;;;4.18;;
35777;SDS011;21899;42.662;23.316;2023-04-25T09:15:55;7.50;;;5.53;;
35777;SDS011;21899;42.662;23.316;2023-04-25T09:18:28;11.20;;;5.43;;
35777;SDS011;21899;42.662;23.316;2023-04-25T09:20:56;6.72;;;4.85;;
35777;SDS011;21899;42.662;23.316;2023-04-25T09:23:29;8.80;;;4.68;;
35777;SDS011;21899;42.662;23.316;2023-04-25T09:25:55;6.95;;;4.75;;
35777;SDS011;21899;42.662;23.316;2023-04-25T09:28:24;7.95;;;5.05;;
35777;SDS011;21899;42.662;23.316;2023-04-25T09:30:54;9.18;;;5.50;;
35777;SDS011;21899;42.662;23.316;2023-04-25T09:33:26;8.93;;;4.97;;
35777;SDS011;21899;42.662;23.316;2023-04-25T09:35:54;9.25;;;5.57;;
35777;SDS011;21899;42.662;23.316;2023-04-25T09:38:26;9.73;;;4.60;;
35777;SDS011;21899;42.662;23.316;2023-04-25T09:40:51;9.23;;;4.90;;
35777;SDS011;21899;42.662;23.316;2023-04-25T09:43:21;8.05;;;4.68;;
35777;SDS011;21899;42.662;23.316;2023-04-25T09:45:47;10.48;;;4.22;;
35777;SDS011;21899;42.662;23.316;2023-04-25T09:48:17;13.27;;;4.90;;
35777;SDS011;21899;42.662;23.316;2023-04-25T09:50:44;7.03;;;4.55;;
35777;SDS011;21899;42.662;23.316;2023-04-25T09:53:10;9.88;;;6.05;;
35777;SDS011;21899;42.662;23.316;2023-04-25T09:55:36;11.98;;;5.70;;
35777;SDS011;21899;42.662;23.316;2023-04-25T09:58:05;12.85;;;5.30;;
35777;SDS011;21899;42.662;23.316;2023-04-25T10:00:34;12.13;;;5.40;;
35777;SDS011;21899;42.662;23.316;2023-04-25T10:03:03;12.55;;;5.07;;
35777;SDS011;21899;42.662;23.316;2023-04-25T10:05:32;9.40;;;5.00;;
35777;SDS011;21899;42.662;23.316;2023-04-25T10:08:01;10.10;;;4.50;;
35777;SDS011;21899;42.662;23.316;2023-04-25T10:10:29;6.40;;;4.18;;
35777;SDS011;21899;42.662;23.316;2023-04-25T10:12:58;5.82;;;3.95;;
35777;SDS011;21899;42.662;23.316;2023-04-25T10:15:23;8.65;;;3.47;;
35777;SDS011;21899;42.662;23.316;2023-04-25T10:17:50;5.32;;;1.20;;
35777;SDS011;21899;42.662;23.316;2023-04-25T10:20:16;4.80;;;1.73;;
35777;SDS011;21899;42.662;23.316;2023-04-25T10:22:42;2.33;;;1.30;;
35777;SDS011;21899;42.662;23.316;2023-04-25T10:25:10;2.58;;;1.35;;
35777;SDS011;21899;42.662;23.316;2023-04-25T10:27:36;2.58;;;1.40;;
35777;SDS011;21899;42.662;23.316;2023-04-25T10:30:03;2.47;;;1.20;;
35777;SDS011;21899;42.662;23.316;2023-04-25T10:32:30;1.85;;;1.25;;
35777;SDS011;21899;42.662;23.316;2023-04-25T10:34:57;2.92;;;1.75;;
35777;SDS011;21899;42.662;23.316;2023-04-25T10:37:22;3.58;;;1.20;;
35777;SDS011;21899;42.662;23.316;2023-04-25T10:39:49;2.08;;;1.20;;
35777;SDS011;21899;42.662;23.316;2023-04-25T10:42:14;2.22;;;1.30;;
35777;SDS011;21899;42.662;23.316;2023-04-25T10:44:40;2.08;;;1.17;;
35777;SDS011;21899;42.662;23.316;2023-04-25T10:47:06;2.45;;;1.30;;
35777;SDS011;21899;42.662;23.316;2023-04-25T10:54:54;2.80;;;1.33;;
35777;SDS011;21899;42.662;23.316;2023-04-25T11:00:07;13.23;;;4.90;;
35777;SDS011;21899;42.662;23.316;2023-04-25T11:02:57;3.85;;;1.50;;
35777;SDS011;21899;42.662;23.316;2023-04-25T11:07:55;4.18;;;1.63;;
35777;SDS011;21899;42.662;23.316;2023-04-25T11:10:28;1.77;;;1.00;;
35777;SDS011;21899;42.662;23.316;2023-04-25T11:12:58;1.50;;;1.02;;
35777;SDS011;21899;42.662;23.316;2023-04-25T11:15:25;4.05;;;1.05;;
35777;SDS011;21899;42.662;23.316;2023-04-25T11:17:51;4.45;;;1.10;;
35777;SDS011;21899;42.662;23.316;2023-04-25T11:20:17;1.27;;;0.80;;
35777;SDS011;21899;42.662;23.316;2023-04-25T11:22:44;1.48;;;1.00;;
35777;SDS011;21899;42.662;23.316;2023-04-25T11:25:11;2.00;;;1.08;;
35777;SDS011;21899;42.662;23.316;2023-04-25T11:27:38;1.90;;;1.15;;
35777;SDS011;21899;42.662;23.316;2023-04-25T11:30:15;1.67;;;1.10;;
35777;SDS011;21899;42.662;23.316;2023-04-25T11:32:41;3.60;;;1.00;;
35777;SDS011;21899;42.662;23.316;2023-04-25T11:35:07;1.67;;;1.00;;
35777;SDS011;21899;42.662;23.316;2023-04-25T11:37:33;2.78;;;1.42;;
35777;SDS011;21899;42.662;23.316;2023-04-25T11:39:59;2.05;;;1.08;;
35777;SDS011;21899;42.662;23.316;2023-04-25T11:42:25;2.35;;;1.10;;
35777;SDS011;21899;42.662;23.316;2023-04-25T11:44:51;4.03;;;1.27;;
35777;SDS011;21899;42.662;23.316;2023-04-25T11:47:17;2.95;;;1.10;;
35777;SDS011;21899;42.662;23.316;2023-04-25T11:49:42;2.95;;;1.35;;
35777;SDS011;21899;42.662;23.316;2023-04-25T11:52:07;3.17;;;1.00;;
35777;SDS011;21899;42.662;23.316;2023-04-25T11:54:36;3.45;;;1.20;;
35777;SDS011;21899;42.662;23.316;2023-04-25T11:57:03;3.83;;;1.23;;
35777;SDS011;21899;42.662;23.316;2023-04-25T11:59:29;2.95;;;1.40;;
35777;SDS011;21899;42.662;23.316;2023-04-25T12:01:55;5.75;;;1.85;;
35777;SDS011;21899;42.662;23.316;2023-04-25T12:04:21;5.32;;;2.50;;
35777;SDS011;21899;42.662;23.316;2023-04-25T12:06:49;3.08;;;1.58;;
35777;SDS011;21899;42.662;23.316;2023-04-25T12:09:17;4.30;;;1.50;;
35777;SDS011;21899;42.662;23.316;2023-04-25T12:12:02;4.57;;;1.80;;
35777;SDS011;21899;42.662;23.316;2023-04-25T12:14:31;5.20;;;2.22;;
35777;SDS011;21899;42.662;23.316;2023-04-25T12:16:58;3.50;;;1.70;;
35777;SDS011;21899;42.662;23.316;2023-04-25T12:19:25;2.67;;;1.50;;
35777;SDS011;21899;42.662;23.316;2023-04-25T12:21:51;4.60;;;1.70;;
35777;SDS011;21899;42.662;23.316;2023-04-25T12:24:17;4.05;;;2.30;;
35777;SDS011;21899;42.662;23.316;2023-04-25T12:26:49;2.58;;;1.45;;
35777;SDS011;21899;42.662;23.316;2023-04-25T12:29:18;4.05;;;1.75;;
35777;SDS011;21899;42.662;23.316;2023-04-25T12:31:46;2.70;;;1.58;;
35777;SDS011;21899;42.662;23.316;2023-04-25T12:34:11;2.78;;;1.40;;
35777;SDS011;21899;42.662;23.316;2023-04-25T12:36:37;1.58;;;1.00;;
35777;SDS011;21899;42.662;23.316;2023-04-25T12:39:03;3.65;;;0.90;;
35777;SDS011;21899;42.662;23.316;2023-04-25T12:41:29;2.55;;;1.00;;
35777;SDS011;21899;42.662;23.316;2023-04-25T12:43:55;7.22;;;1.05;;
35777;SDS011;21899;42.662;23.316;2023-04-25T12:46:20;2.40;;;1.02;;
35777;SDS011;21899;42.662;23.316;2023-04-25T12:48:47;1.77;;;0.80;;
35777;SDS011;21899;42.662;23.316;2023-04-25T12:51:13;4.80;;;1.17;;
35777;SDS011;21899;42.662;23.316;2023-04-25T12:53:38;3.38;;;1.00;;
35777;SDS011;21899;42.662;23.316;2023-04-25T12:56:05;2.90;;;1.30;;
35777;SDS011;21899;42.662;23.316;2023-04-25T12:58:32;2.70;;;1.30;;
35777;SDS011;21899;42.662;23.316;2023-04-25T13:00:58;3.03;;;1.38;;
35777;SDS011;21899;42.662;23.316;2023-04-25T13:03:24;2.97;;;1.33;;
35777;SDS011;21899;42.662;23.316;2023-04-25T13:05:50;4.43;;;1.90;;
35777;SDS011;21899;42.662;23.316;2023-04-25T13:08:17;4.07;;;1.33;;
35777;SDS011;21899;42.662;23.316;2023-04-25T13:10:45;5.05;;;1.75;;
35777;SDS011;21899;42.662;23.316;2023-04-25T13:13:12;5.15;;;2.15;;
35777;SDS011;21899;42.662;23.316;2023-04-25T13:15:37;3.05;;;1.80;;
35777;SDS011;21899;42.662;23.316;2023-04-25T13:18:03;6.25;;;2.13;;
35777;SDS011;21899;42.662;23.316;2023-04-25T13:20:30;4.82;;;2.00;;
35777;SDS011;21899;42.662;23.316;2023-04-25T13:22:55;4.55;;;2.47;;
35777;SDS011;21899;42.662;23.316;2023-04-25T13:25:21;4.97;;;2.22;;
35777;SDS011;21899;42.662;23.316;2023-04-25T13:27:47;4.47;;;2.15;;
35777;SDS011;21899;42.662;23.316;2023-04-25T13:30:12;8.68;;;3.22;;
35777;SDS011;21899;42.662;23.316;2023-04-25T13:32:39;6.32;;;2.25;;
35777;SDS011;21899;42.662;23.316;2023-04-25T13:35:05;8.35;;;3.72;;
35777;SDS011;21899;42.662;23.316;2023-04-25T13:37:33;7.13;;;3.08;;
35777;SDS011;21899;42.662;23.316;2023-04-25T13:40:03;6.38;;;2.88;;
35777;SDS011;21899;42.662;23.316;2023-04-25T13:42:32;5.00;;;3.20;;
35777;SDS011;21899;42.662;23.316;2023-04-25T13:44:58;7.45;;;3.03;;
35777;SDS011;21899;42.662;23.316;2023-04-25T13:47:23;5.28;;;2.90;;
35777;SDS011;21899;42.662;23.316;2023-04-25T13:49:49;7.05;;;3.10;;
35777;SDS011;21899;42.662;23.316;2023-04-25T13:52:15;4.65;;;2.30;;
35777;SDS011;21899;42.662;23.316;2023-04-25T13:54:40;6.13;;;2.70;;
35777;SDS011;21899;42.662;23.316;2023-04-25T13:57:06;3.63;;;2.15;;
35777;SDS011;21899;42.662;23.316;2023-04-25T13:59:31;6.85;;;2.50;;
35777;SDS011;21899;42.662;23.316;2023-04-25T14:01:57;6.05;;;2.30;;
35777;SDS011;21899;42.662;23.316;2023-04-25T14:04:23;4.70;;;2.22;;
35777;SDS011;21899;42.662;23.316;2023-04-25T14:06:48;7.30;;;2.22;;
35777;SDS011;21899;42.662;23.316;2023-04-25T14:09:15;5.18;;;2.72;;
35777;SDS011;21899;42.662;23.316;2023-04-25T14:11:40;6.78;;;2.20;;
35777;SDS011;21899;42.662;23.316;2023-04-25T14:14:06;3.15;;;1.83;;
35777;SDS011;21899;42.662;23.316;2023-04-25T14:16:31;4.35;;;1.65;;
35777;SDS011;21899;42.662;23.316;2023-04-25T14:19:00;3.80;;;1.67;;
35777;SDS011;21899;42.662;23.316;2023-04-25T14:21:26;3.30;;;1.60;;
35777;SDS011;21899;42.662;23.316;2023-04-25T14:23:52;2.92;;;1.70;;
35777;SDS011;21899;42.662;23.316;2023-04-25T14:26:17;3.13;;;1.30;;
35777;SDS011;21899;42.662;23.316;2023-04-25T14:28:43;3.10;;;1.35;;